ozspeedtest.com alexa rank chart, ozspeedtest.com alexa rank daily changes

ozspeedtest.com alexa rank chart, ozspeedtest.com alexa rank daily changes

ozspeedtest.com
Actual rank:
59 920

RANK HISTORY

Date Rank Diff
2017/11/25 59 920 +702
2017/11/24 59 218 -836
2017/11/23 60 054 +83
2017/11/22 59 971 +427
2017/11/21 59 544 +41
2017/11/20 59 503 -649
2017/11/19 60 152 +161
2017/11/18 59 991 -537
2017/11/17 60 528 -794
2017/11/16 61 322 +470
2017/11/15 60 852 -745
2017/11/14 61 597 -681
2017/11/13 62 278 -972
2017/11/12 63 250 -2 027
2017/11/11 65 277 -1 856
2017/11/10 67 133 -1 912
2017/11/09 69 045 +280
2017/11/08 68 765 -851
2017/11/07 69 616 +157
2017/11/06 69 459 -1 008
2017/11/05 70 467 -337
2017/11/04 70 804 -926
2017/11/03 71 730 -412
2017/11/02 72 142 +262
2017/11/01 71 880 +228
2017/10/31 71 652 +96
2017/10/30 71 556 -240
2017/10/29 71 796 -89
2017/10/28 71 885 -335
2017/10/27 72 220 +73
2017/10/26 72 147 -261
2017/10/25 72 408 -1 509
2017/10/24 73 917 +1 252
2017/10/23 72 665 -1 238
2017/10/22 73 903 -434
2017/10/21 74 337 -1 214
2017/10/20 75 551 -95
2017/10/19 75 646 -1 595
2017/10/18 77 241 +693
2017/10/17 76 548 +410
2017/10/16 76 138 -1 263
2017/10/14 77 401 +947
2017/10/13 76 454 +535
2017/10/12 75 919 +1 134
2017/10/11 74 785 +65
2017/10/10 74 720 +1 246
2017/10/09 73 474 +138
2017/10/08 73 336 -299
2017/10/07 73 635 -773
2017/10/06 74 408 -159
2017/10/05 74 567 -1 489
2017/10/04 76 056 -272
2017/10/03 76 328 +339
2017/10/02 75 989 +44
2017/10/01 75 945 -1 240
2017/09/30 77 185 +50
2017/09/29 77 135 +817
2017/09/28 76 318 +623
2017/09/27 75 695 -174
2017/09/26 75 869

WIDGET FOR YOUR SITE

DOMAINS WITH THE NEAREST RANK

Domain Rank
wwh-club.net 59 915
life-prog.ru 59 916
l2inc.com 59 917
hzz.hr 59 918
freetech4teachers.com 59 919
ozspeedtest.com 59 920
channel4.lk 59 921
kominfo.go.id 59 922
karirglobal.id 59 923
protennislive.com 59 924
semeynaya-kuchka.ru 59 925

DOMAINS WITH THE NEAREST RANK BY TLD .com

Domain Rank
beeupdter.com 59 908
authedmine.com 59 909
i-comparateur.com 59 913
l2inc.com 59 917
freetech4teachers.com 59 919
ozspeedtest.com 59 920
protennislive.com 59 924
qbp.com 59 927
wowcity.com 59 928
abcteach.com 59 929
hiphopmakers.com 59 930